Thorntown, Indiana
Current Conditions -  °F | °C
As of 9:55 AM on Tuesday 21 Oct 2014 (Local Time) from KFKR Reporting Station
Haze Haze  
Wind Chill: 44°   Ceiling: 3000
Heat Index: 48°   Visibility: 4mi
Dew Point: 48°   Wind: 8mph
Humidity: 100%   Direction: 320°NW
Pressure: 30.1"   Gusts: NA
Location:  40.13°N, 86.61°W
Report Text: KFKR 211355Z AUTO 32007KT 4SM BR SCT024 BKN030 OVC055 09/09 A3010 RMK AO2 P0002 T00870087
Loading
Personal Weather Stations






























Interactive Weather Map
Tropical Storm Tracking
New forecast layout! Learn more

10-Day Weather Forecast

Advertisements
Track Severe Weather on mobile